createdAt,value
2022-08-04T00:00:02.413Z,100251.27
2022-08-04T00:02:33.862Z,100261.05
2022-08-04T00:05:05.372Z,100261.06
2022-08-04T00:07:44.711Z,100255.70
2022-08-04T00:10:07.639Z,100258.70
2022-08-04T00:12:39.767Z,100257.16
2022-08-04T00:15:10.322Z,100251.44
2022-08-04T00:17:47.986Z,100247.42
2022-08-04T00:20:18.490Z,100250.42
2022-08-04T00:22:48.131Z,100248.02
2022-08-04T00:25:17.221Z,100253.02
2022-08-04T00:27:47.130Z,100258.22
2022-08-04T00:30:16.127Z,100255.17
2022-08-04T00:32:45.028Z,100252.31
2022-08-04T00:35:17.106Z,100247.80
2022-08-04T00:37:47.420Z,100256.02
2022-08-04T00:40:21.965Z,100251.48
2022-08-04T00:42:59.188Z,100258.57
2022-08-04T00:46:14.148Z,100251.07
2022-08-04T00:48:11.161Z,100250.89
2022-08-04T00:50:44.390Z,100250.05
2022-08-04T00:53:26.769Z,100247.53
2022-08-04T00:56:15.070Z,100250.89
2022-08-04T00:58:45.322Z,100253.19
2022-08-04T01:01:15.697Z,100255.45
2022-08-04T01:03:45.981Z,100253.16
2022-08-04T01:06:19.032Z,100253.13
2022-08-04T01:08:55.067Z,100255.77
2022-08-04T01:11:28.073Z,100257.78
2022-08-04T01:13:59.489Z,100259.77
2022-08-04T01:16:28.604Z,100264.97
2022-08-04T01:19:04.896Z,100262.94
2022-08-04T01:21:47.351Z,100261.95
2022-08-04T01:24:17.624Z,100262.94
2022-08-04T01:26:58.702Z,100264.13
2022-08-04T01:29:29.388Z,100264.28
2022-08-04T01:32:00.839Z,100263.06
2022-08-04T01:34:31.117Z,100257.55
2022-08-04T01:37:01.404Z,100261.03
2022-08-04T01:39:44.530Z,100263.17
2022-08-04T01:42:22.514Z,100260.42
2022-08-04T01:44:46.263Z,100260.42
2022-08-04T01:47:16.505Z,100259.20
2022-08-04T01:49:47.701Z,100259.16
2022-08-04T01:52:17.941Z,100264.00
2022-08-04T01:54:47.185Z,100259.95
2022-08-04T01:57:38.244Z,100265.34
2022-08-04T01:59:49.809Z,100260.16
2022-08-04T02:02:18.764Z,100265.84
2022-08-04T02:04:47.565Z,100265.45
2022-08-04T02:07:34.218Z,100265.60
2022-08-04T02:10:11.372Z,100261.40
2022-08-04T02:12:42.659Z,100260.52
2022-08-04T02:15:13.004Z,100261.20
2022-08-04T02:17:43.755Z,100258.53
2022-08-04T02:20:16.976Z,100256.85
2022-08-04T02:22:50.340Z,100264.63
2022-08-04T02:25:20.593Z,100259.62
2022-08-04T02:28:00.335Z,100262.79
2022-08-04T02:30:26.097Z,100260.52
2022-08-04T02:32:57.271Z,100259.88
2022-08-04T02:35:47.900Z,100256.86
2022-08-04T02:38:36.455Z,100260.72
2022-08-04T02:41:06.837Z,100252.51
2022-08-04T02:43:52.105Z,100251.63
2022-08-04T02:46:17.876Z,100248.45
2022-08-04T02:48:39.166Z,100251.27
2022-08-04T02:51:07.955Z,100248.55
2022-08-04T02:53:39.205Z,100246.38
2022-08-04T02:56:08.522Z,100251.55
2022-08-04T02:58:39.360Z,100254.72
2022-08-04T03:01:09.188Z,100249.19
2022-08-04T03:03:43.417Z,100248.34
2022-08-04T03:06:13.740Z,100249.19
2022-08-04T03:09:00.434Z,100250.67
2022-08-04T03:11:45.552Z,100250.67
2022-08-04T03:14:35.691Z,100251.31
2022-08-04T03:17:06.586Z,100249.53
2022-08-04T03:19:53.236Z,100254.41
2022-08-04T03:22:59.787Z,100258.41
2022-08-04T03:25:26.065Z,100257.41
2022-08-04T03:28:08.426Z,100254.79
2022-08-04T03:30:44.824Z,100257.61
2022-08-04T03:33:26.932Z,100263.94
2022-08-04T03:36:00.139Z,100263.82
2022-08-04T03:38:54.798Z,100260.31
2022-08-04T03:41:54.849Z,100254.92
2022-08-04T03:44:02.675Z,100261.38
2022-08-04T03:46:32.941Z,100258.92
2022-08-04T03:49:03.175Z,100262.08
2022-08-04T03:51:51.129Z,100261.30
2022-08-04T03:54:21.389Z,100256.89
2022-08-04T03:56:51.632Z,100255.91
2022-08-04T03:59:37.087Z,100262.95
2022-08-04T04:02:07.603Z,100257.22
2022-08-04T04:04:53.190Z,100259.77
2022-08-04T04:07:41.362Z,100261.77
2022-08-04T04:10:31.494Z,100263.19
2022-08-04T04:13:07.612Z,100255.88
2022-08-04T04:15:47.077Z,100264.55
2022-08-04T04:18:27.791Z,100260.58
2022-08-04T04:21:13.287Z,100266.30
2022-08-04T04:23:43.586Z,100266.19
2022-08-04T04:26:31.575Z,100263.20
2022-08-04T04:29:04.513Z,100262.20
2022-08-04T04:31:36.423Z,100266.56
2022-08-04T04:34:06.694Z,100265.91
2022-08-04T04:36:42.945Z,100260.09
2022-08-04T04:39:16.192Z,100267.50
2022-08-04T04:42:02.906Z,100261.36
2022-08-04T04:44:33.229Z,100263.59
2022-08-04T04:47:03.485Z,100262.98
2022-08-04T04:49:33.729Z,100264.42
2022-08-04T04:52:04.259Z,100273.06
2022-08-04T04:54:40.546Z,100265.08
2022-08-04T04:57:13.857Z,100266.31
2022-08-04T04:59:47.487Z,100258.65
2022-08-04T05:02:23.749Z,100261.95
2022-08-04T05:05:00.133Z,100258.66
2022-08-04T05:07:50.310Z,100259.89
2022-08-04T05:10:37.623Z,100261.55
2022-08-04T05:14:34.916Z,100254.97
2022-08-04T05:15:49.454Z,100253.48
2022-08-04T05:18:19.697Z,100248.83
2022-08-04T05:20:51.928Z,100252.91
2022-08-04T05:23:22.160Z,100253.80
2022-08-04T05:25:59.918Z,100253.06
2022-08-04T05:28:30.995Z,100244.49
2022-08-04T05:31:04.016Z,100249.36
2022-08-04T05:33:36.915Z,100244.75
2022-08-04T05:36:18.503Z,100248.23
2022-08-04T05:38:40.341Z,100242.36
2022-08-04T05:41:09.998Z,100242.11
2022-08-04T05:43:41.344Z,100239.25
2022-08-04T05:46:10.906Z,100238.53
2022-08-04T05:48:41.041Z,100245.88
2022-08-04T05:51:11.041Z,100242.58
2022-08-04T05:53:41.714Z,100242.45
2022-08-04T05:56:12.047Z,100243.36
2022-08-04T05:58:41.227Z,100243.31
2022-08-04T06:01:11.955Z,100244.14
2022-08-04T06:03:41.095Z,100248.42
2022-08-04T06:06:11.309Z,100249.76
2022-08-04T06:08:40.135Z,100255.38
2022-08-04T06:11:11.518Z,100259.30
2022-08-04T06:13:50.611Z,100249.79
2022-08-04T06:16:29.988Z,100250.63
2022-08-04T06:20:00.175Z,100249.98
2022-08-04T06:21:22.856Z,100245.52
2022-08-04T06:23:53.722Z,100245.18
2022-08-04T06:26:22.992Z,100248.86
2022-08-04T06:28:53.519Z,100251.13
2022-08-04T06:32:31.059Z,100248.34
2022-08-04T06:34:13.133Z,100249.70
2022-08-04T06:36:42.642Z,100255.70
2022-08-04T06:39:12.903Z,100258.64
2022-08-04T06:41:55.253Z,100258.23
2022-08-04T06:44:16.360Z,100253.41
2022-08-04T06:46:45.270Z,100258.63
2022-08-04T06:49:14.869Z,100253.11
2022-08-04T06:51:49.436Z,100251.47
2022-08-04T06:54:14.572Z,100251.06
2022-08-04T06:56:45.421Z,100248.84
2022-08-04T06:59:15.030Z,100253.87
2022-08-04T07:01:44.319Z,100246.94
2022-08-04T07:04:13.259Z,100249.88
2022-08-04T07:06:42.376Z,100254.55
2022-08-04T07:09:11.442Z,100255.30
2022-08-04T07:11:44.714Z,100252.63
2022-08-04T07:14:12.247Z,100248.36
2022-08-04T07:16:42.827Z,100249.45
2022-08-04T07:19:13.823Z,100253.18
2022-08-04T07:21:42.112Z,100260.70
2022-08-04T07:24:12.586Z,100253.88
2022-08-04T07:26:41.324Z,100251.00
2022-08-04T07:29:11.597Z,100248.98
2022-08-04T07:31:40.408Z,100246.93
2022-08-04T07:34:11.491Z,100248.98
2022-08-04T07:36:43.553Z,100245.44
2022-08-04T07:39:11.767Z,100234.50
2022-08-04T07:41:45.132Z,100240.59
2022-08-04T07:44:17.136Z,100250.13
2022-08-04T07:46:47.383Z,100236.94
2022-08-04T07:49:55.275Z,100236.46
2022-08-04T07:51:46.725Z,100232.94
2022-08-04T07:54:16.096Z,100237.03
2022-08-04T07:56:45.725Z,100238.68
2022-08-04T07:59:16.276Z,100232.34
2022-08-04T08:01:45.208Z,100236.17
2022-08-04T08:04:15.364Z,100237.12
2022-08-04T08:06:44.258Z,100234.69
2022-08-04T08:09:14.950Z,100232.78
2022-08-04T08:12:36.714Z,100229.77
2022-08-04T08:14:16.956Z,100233.41
2022-08-04T08:16:45.920Z,100228.64
2022-08-04T08:19:14.735Z,100227.74
2022-08-04T08:21:59.036Z,100228.91
2022-08-04T08:24:16.370Z,100224.25
2022-08-04T08:26:45.238Z,100233.81
2022-08-04T08:29:14.124Z,100222.94
2022-08-04T08:31:56.421Z,100232.61
2022-08-04T08:34:15.114Z,100229.64
2022-08-04T08:36:46.998Z,100234.66
2022-08-04T08:39:33.668Z,100231.19
2022-08-04T08:42:19.176Z,100229.50
2022-08-04T08:44:49.468Z,100233.62
2022-08-04T08:47:19.930Z,100231.46
2022-08-04T08:50:07.142Z,100236.33
2022-08-04T08:53:00.942Z,100223.56
2022-08-04T08:55:41.112Z,100227.06
2022-08-04T08:58:14.535Z,100237.36
2022-08-04T09:00:44.788Z,100225.00
2022-08-04T09:03:15.213Z,100227.59
2022-08-04T09:05:51.564Z,100229.77
2022-08-04T09:08:22.179Z,100221.56
2022-08-04T09:10:52.685Z,100228.77
2022-08-04T09:13:28.994Z,100225.59
2022-08-04T09:16:02.389Z,100223.89
2022-08-04T09:18:49.381Z,100222.77
2022-08-04T09:21:32.539Z,100218.62
2022-08-04T09:24:35.540Z,100215.61
2022-08-04T09:26:43.565Z,100226.41
2022-08-04T09:29:16.709Z,100212.90
2022-08-04T09:32:07.211Z,100214.67
2022-08-04T09:34:25.086Z,100212.23
2022-08-04T09:37:09.183Z,100215.18
2022-08-04T09:39:45.150Z,100219.89
2022-08-04T09:42:25.686Z,100210.16
2022-08-04T09:45:06.058Z,100206.67
2022-08-04T09:47:51.989Z,100214.67
2022-08-04T09:50:37.072Z,100208.43
2022-08-04T09:53:23.816Z,100217.48
2022-08-04T09:56:06.237Z,100206.94
2022-08-04T09:58:37.256Z,100207.16
2022-08-04T10:01:13.792Z,100208.44
2022-08-04T10:03:44.028Z,100208.37
2022-08-04T10:06:23.318Z,100206.60
2022-08-04T10:09:10.231Z,100201.09
2022-08-04T10:11:55.778Z,100201.67
2022-08-04T10:14:12.316Z,100206.53
2022-08-04T10:16:48.460Z,100196.95
2022-08-04T10:19:21.716Z,100195.74
2022-08-04T10:21:59.720Z,100191.45
2022-08-04T10:24:28.691Z,100204.59
2022-08-04T10:27:05.225Z,100198.90
2022-08-04T10:29:41.882Z,100199.24
2022-08-04T10:32:21.991Z,100190.90
2022-08-04T10:35:12.037Z,100190.39
2022-08-04T10:37:58.955Z,100191.03
2022-08-04T10:40:38.253Z,100192.45
2022-08-04T10:43:21.963Z,100187.40
2022-08-04T10:45:47.343Z,100180.23
2022-08-04T10:48:34.271Z,100185.70
2022-08-04T10:50:57.099Z,100177.30
2022-08-04T10:53:25.798Z,100171.78
2022-08-04T10:56:06.450Z,100179.38
2022-08-04T10:58:46.932Z,100172.27
2022-08-04T11:00:59.819Z,100168.25
2022-08-04T11:03:30.041Z,100173.94
2022-08-04T11:05:59.362Z,100171.56
2022-08-04T11:08:31.604Z,100173.16
2022-08-04T11:11:02.139Z,100167.86
2022-08-04T11:13:32.389Z,100160.39
2022-08-04T11:16:02.679Z,100157.53
2022-08-04T11:18:33.436Z,100163.95
2022-08-04T11:21:06.334Z,100158.63
2022-08-04T11:23:36.576Z,100161.89
2022-08-04T11:26:13.872Z,100160.56
2022-08-04T11:29:03.973Z,100156.68
2022-08-04T11:31:32.418Z,100161.03
2022-08-04T11:34:08.689Z,100147.50
2022-08-04T11:36:44.709Z,100161.47
2022-08-04T11:39:17.898Z,100159.88
2022-08-04T11:41:55.049Z,100162.14
2022-08-04T11:44:25.570Z,100162.15
2022-08-04T11:46:55.929Z,100154.78
2022-08-04T11:49:29.162Z,100153.05
2022-08-04T11:51:59.479Z,100159.64
2022-08-04T11:54:28.222Z,100156.55
2022-08-04T11:56:57.683Z,100148.83
2022-08-04T11:59:27.930Z,100150.20
2022-08-04T12:02:20.846Z,100153.12
2022-08-04T12:04:54.460Z,100145.55
2022-08-04T12:07:41.852Z,100140.87
2022-08-04T12:10:41.406Z,100141.48
2022-08-04T12:13:12.378Z,100141.19
2022-08-04T12:15:46.607Z,100142.14
2022-08-04T12:18:16.835Z,100141.20
2022-08-04T12:20:48.795Z,100145.44
2022-08-04T12:23:25.522Z,100135.19
2022-08-04T12:25:55.798Z,100130.64
2022-08-04T12:28:26.084Z,100138.36
2022-08-04T12:31:01.239Z,100144.06
2022-08-04T12:33:41.594Z,100140.72
2022-08-04T12:36:19.185Z,100132.20
2022-08-04T12:38:47.646Z,100133.06
2022-08-04T12:41:17.919Z,100126.84
2022-08-04T12:43:47.382Z,100121.09
2022-08-04T12:46:23.828Z,100124.45
2022-08-04T12:48:53.310Z,100121.02
2022-08-04T12:51:57.950Z,100115.85
2022-08-04T12:53:58.272Z,100118.73
2022-08-04T12:56:28.869Z,100110.02
2022-08-04T12:59:04.985Z,100112.22
2022-08-04T13:02:10.206Z,100112.66
2022-08-04T13:04:07.264Z,100100.36
2022-08-04T13:06:37.011Z,100106.61
2022-08-04T13:09:09.343Z,100097.90
2022-08-04T13:11:42.112Z,100100.56
2022-08-04T13:14:26.680Z,100101.12
2022-08-04T13:16:46.508Z,100099.68
2022-08-04T13:19:15.248Z,100092.88
2022-08-04T13:21:50.270Z,100089.36
2022-08-04T13:24:21.247Z,100082.72
2022-08-04T13:27:03.291Z,100092.88
2022-08-04T13:29:59.660Z,100089.23
2022-08-04T13:32:14.454Z,100088.88
2022-08-04T13:34:48.921Z,100088.72
2022-08-04T13:37:20.791Z,100087.80
2022-08-04T13:39:55.136Z,100088.16
2022-08-04T13:42:17.803Z,100084.91
2022-08-04T13:44:48.812Z,100087.18
2022-08-04T13:47:22.885Z,100082.10
2022-08-04T13:50:12.135Z,100080.36
2022-08-04T13:52:45.059Z,100079.80
2022-08-04T13:55:24.548Z,100077.73
2022-08-04T13:57:57.552Z,100071.78
2022-08-04T14:00:33.397Z,100076.23
2022-08-04T14:03:02.594Z,100067.05
2022-08-04T14:05:36.952Z,100063.41
2022-08-04T14:08:06.722Z,100065.51
2022-08-04T14:10:37.098Z,100061.03
2022-08-04T14:13:07.187Z,100059.22
2022-08-04T14:16:01.455Z,100056.72
2022-08-04T14:18:20.066Z,100057.45
2022-08-04T14:21:06.946Z,100060.86
2022-08-04T14:23:47.556Z,100058.99
2022-08-04T14:26:18.303Z,100055.89
2022-08-04T14:29:25.404Z,100050.39
2022-08-04T14:31:19.350Z,100058.95
2022-08-04T14:34:01.918Z,100051.22
2022-08-04T14:36:22.441Z,100043.40
2022-08-04T14:38:51.591Z,100049.11
2022-08-04T14:41:29.787Z,100051.56
2022-08-04T14:43:59.799Z,100047.67
2022-08-04T14:46:30.338Z,100046.50
2022-08-04T14:49:04.304Z,100048.66
2022-08-04T14:51:36.618Z,100041.40
2022-08-04T14:54:08.957Z,100040.94
2022-08-04T14:56:46.706Z,100031.94
2022-08-04T14:59:09.586Z,100033.67
2022-08-04T15:01:43.751Z,100030.28
2022-08-04T15:04:13.307Z,100030.83
2022-08-04T15:06:42.404Z,100033.16
2022-08-04T15:09:11.896Z,100022.94
2022-08-04T15:11:44.658Z,100020.85
2022-08-04T15:14:36.190Z,100023.50
2022-08-04T15:16:53.876Z,100020.25
2022-08-04T15:19:15.395Z,100015.28
2022-08-04T15:21:44.399Z,100012.33
2022-08-04T15:24:14.568Z,100013.13
2022-08-04T15:26:44.815Z,99999.50
2022-08-04T15:29:16.799Z,99999.50
2022-08-04T15:32:06.428Z,100004.92
2022-08-04T15:34:23.411Z,100003.27
2022-08-04T15:36:57.237Z,100008.75
2022-08-04T15:39:42.743Z,100001.94
2022-08-04T15:42:21.277Z,100003.15
2022-08-04T15:44:48.977Z,100002.03
2022-08-04T15:47:17.928Z,99997.67
2022-08-04T15:49:46.714Z,99993.89
2022-08-04T15:52:18.330Z,99993.06
2022-08-04T15:54:52.757Z,99993.41
2022-08-04T15:57:18.037Z,99990.25
2022-08-04T16:00:03.284Z,99988.80
2022-08-04T16:02:43.684Z,99987.92
2022-08-04T16:05:18.659Z,99992.19
2022-08-04T16:07:56.302Z,99988.75
2022-08-04T16:10:34.172Z,99988.89
2022-08-04T16:13:07.316Z,99986.44
2022-08-04T16:15:37.569Z,99982.20
2022-08-04T16:18:13.812Z,99983.13
2022-08-04T16:20:38.669Z,99981.45
2022-08-04T16:23:37.309Z,99973.97
2022-08-04T16:25:51.212Z,99978.31
2022-08-04T16:28:37.980Z,99974.94
2022-08-04T16:31:07.568Z,99982.28
2022-08-04T16:33:43.822Z,99972.88
2022-08-04T16:36:10.620Z,99973.87
2022-08-04T16:38:57.813Z,99976.13
2022-08-04T16:41:43.770Z,99971.68
2022-08-04T16:44:52.129Z,99979.04
2022-08-04T16:47:22.213Z,99971.00
2022-08-04T16:49:34.468Z,99971.26
2022-08-04T16:52:09.431Z,99968.79
2022-08-04T16:54:38.034Z,99966.41
2022-08-04T16:57:10.510Z,99963.09
2022-08-04T16:59:40.225Z,99968.22
2022-08-04T17:02:10.233Z,99962.94
2022-08-04T17:04:39.341Z,99968.34
2022-08-04T17:07:09.821Z,99967.02
2022-08-04T17:09:38.713Z,99963.38
2022-08-04T17:12:07.587Z,99966.19
2022-08-04T17:14:36.476Z,99968.50
2022-08-04T17:17:08.925Z,99967.43
2022-08-04T17:19:36.363Z,99965.88
2022-08-04T17:22:10.219Z,99968.12
2022-08-04T17:24:40.675Z,99971.22
2022-08-04T17:28:08.931Z,99964.72
2022-08-04T17:29:45.236Z,99969.08
2022-08-04T17:32:16.166Z,99969.16
2022-08-04T17:34:46.403Z,99974.45
2022-08-04T17:39:49.172Z,99976.19
2022-08-04T17:42:31.318Z,99973.25
2022-08-04T17:45:41.470Z,99972.13
2022-08-04T17:47:39.350Z,99971.39
2022-08-04T17:50:11.505Z,99970.67
2022-08-04T17:52:45.511Z,99968.50
2022-08-04T17:55:16.389Z,99976.09
2022-08-04T17:57:41.842Z,99972.88
2022-08-04T18:00:19.343Z,99969.48
2022-08-04T18:02:44.258Z,99967.94
2022-08-04T18:05:16.133Z,99969.29
2022-08-04T18:08:38.344Z,99970.11
2022-08-04T18:10:30.899Z,99970.03
2022-08-04T18:12:47.120Z,99967.25
2022-08-04T18:15:23.037Z,99963.88
2022-08-04T18:18:22.624Z,99973.98
2022-08-04T18:20:25.880Z,99967.13
2022-08-04T18:22:55.289Z,99965.82
2022-08-04T18:25:50.317Z,99964.41
2022-08-04T18:27:57.091Z,99967.91
2022-08-04T18:30:38.196Z,99965.39
2022-08-04T18:33:10.570Z,99972.98
2022-08-04T18:36:34.198Z,99973.95
2022-08-04T18:38:07.126Z,99968.70
2022-08-04T18:40:42.078Z,99973.36
2022-08-04T18:43:06.114Z,99971.94
2022-08-04T18:45:35.277Z,99979.18
2022-08-04T18:48:14.522Z,99974.05
2022-08-04T18:51:10.142Z,99975.50
2022-08-04T18:53:05.782Z,99977.84
2022-08-04T18:55:57.017Z,99977.10
2022-08-04T18:58:13.628Z,99985.02
2022-08-04T19:00:45.142Z,99991.38
2022-08-04T19:03:11.451Z,99991.58
2022-08-04T19:05:41.850Z,99994.17
2022-08-04T19:10:41.175Z,100000.30
2022-08-04T19:13:25.290Z,100005.21
2022-08-04T19:15:41.714Z,99999.95
2022-08-04T19:18:12.126Z,100005.55
2022-08-04T19:20:42.486Z,100004.95
2022-08-04T19:24:27.515Z,100017.82
2022-08-04T19:25:59.060Z,100018.58
2022-08-04T19:28:19.342Z,100017.73
2022-08-04T19:30:49.705Z,100014.31
2022-08-04T19:33:20.222Z,100010.22
2022-08-04T19:35:50.968Z,100014.11
2022-08-04T19:38:20.977Z,100013.69
2022-08-04T19:43:23.009Z,100019.73
2022-08-04T19:45:52.973Z,100019.22
2022-08-04T19:48:23.736Z,100015.66
2022-08-04T19:50:55.570Z,100020.37
2022-08-04T19:53:37.636Z,100024.30
2022-08-04T19:55:54.936Z,100020.45
2022-08-04T19:58:26.033Z,100017.54
2022-08-04T20:00:55.599Z,100018.79
2022-08-04T20:04:08.438Z,100020.66
2022-08-04T20:05:55.960Z,100019.63
2022-08-04T20:08:27.996Z,100017.86
2022-08-04T20:10:57.610Z,100016.71
2022-08-04T20:13:37.213Z,100020.45
2022-08-04T20:15:59.238Z,100024.09
2022-08-04T20:18:55.633Z,100023.34
2022-08-04T20:21:04.290Z,100022.84
2022-08-04T20:23:47.706Z,100026.49
2022-08-04T20:26:05.264Z,100028.23
2022-08-04T20:28:38.503Z,100032.42
2022-08-04T20:31:07.991Z,100021.78
2022-08-04T20:33:36.847Z,100025.12
2022-08-04T20:36:06.671Z,100023.36
2022-08-04T20:38:35.603Z,100025.13
2022-08-04T20:41:05.420Z,100019.31
2022-08-04T20:43:34.700Z,100017.69
2022-08-04T20:46:18.047Z,100021.50
2022-08-04T20:48:36.688Z,100017.63
2022-08-04T20:51:05.693Z,100024.00
2022-08-04T20:53:52.832Z,100023.91
2022-08-04T20:56:05.011Z,100026.27
2022-08-04T20:58:35.373Z,100030.23
2022-08-04T21:01:05.150Z,100022.92
2022-08-04T21:04:00.842Z,100035.61
2022-08-04T21:06:23.713Z,100030.95
2022-08-04T21:08:57.244Z,100033.28
2022-08-04T21:11:23.399Z,100030.81
2022-08-04T21:13:52.907Z,100032.31
2022-08-04T21:16:53.600Z,100026.20
2022-08-04T21:18:52.106Z,100034.59
2022-08-04T21:21:20.851Z,100028.39
2022-08-04T21:23:51.216Z,100033.56
2022-08-04T21:26:25.913Z,100036.58
2022-08-04T21:28:54.337Z,100035.42
2022-08-04T21:31:23.075Z,100030.52
2022-08-04T21:33:52.216Z,100032.81
2022-08-04T21:36:21.339Z,100034.32
2022-08-04T21:38:51.401Z,100033.74
2022-08-04T21:41:25.090Z,100032.97
2022-08-04T21:43:51.430Z,100030.91
2022-08-04T21:46:20.172Z,100027.93
2022-08-04T21:48:49.466Z,100028.74
2022-08-04T21:51:22.005Z,100027.20
2022-08-04T21:53:53.833Z,100027.53
2022-08-04T21:56:26.489Z,100023.95
2022-08-04T21:58:51.745Z,100029.03
2022-08-04T22:01:50.660Z,100029.43
2022-08-04T22:03:57.193Z,100026.27
2022-08-04T22:06:28.064Z,100028.48
2022-08-04T22:08:53.591Z,100028.33
2022-08-04T22:11:48.469Z,100027.37
2022-08-04T22:14:11.640Z,100035.12
2022-08-04T22:16:34.775Z,100027.73
2022-08-04T22:19:04.285Z,100032.63
2022-08-04T22:21:39.312Z,100028.66
2022-08-04T22:24:05.627Z,100026.38
2022-08-04T22:26:36.048Z,100026.81
2022-08-04T22:29:06.154Z,100028.97
2022-08-04T22:31:55.982Z,100024.27
2022-08-04T22:34:05.492Z,100029.75
2022-08-04T22:36:34.822Z,100025.98
2022-08-04T22:39:07.565Z,100026.99
2022-08-04T22:42:03.136Z,100021.02
2022-08-04T22:44:06.412Z,100020.23
2022-08-04T22:46:36.261Z,100018.02
2022-08-04T22:49:05.278Z,100016.56
2022-08-04T22:51:34.052Z,100014.61
2022-08-04T22:54:12.465Z,100010.23
2022-08-04T22:56:37.738Z,100014.81
2022-08-04T22:59:04.773Z,100018.62
2022-08-04T23:01:58.018Z,100017.88
2022-08-04T23:04:09.450Z,100019.80
2022-08-04T23:06:39.724Z,100012.81
2022-08-04T23:09:11.837Z,100015.39
2022-08-04T23:11:43.352Z,100017.24
2022-08-04T23:14:11.461Z,100016.98
2022-08-04T23:16:42.257Z,100016.06
2022-08-04T23:19:15.345Z,100013.33
2022-08-04T23:21:47.936Z,100012.68
2022-08-04T23:24:13.266Z,100011.05
2022-08-04T23:26:42.268Z,100012.36
2022-08-04T23:29:12.170Z,100008.00
2022-08-04T23:32:00.176Z,100008.03
2022-08-04T23:34:12.492Z,100004.93
2022-08-04T23:36:41.464Z,100004.14
2022-08-04T23:39:12.139Z,100005.19
2022-08-04T23:41:55.292Z,100009.97
2022-08-04T23:44:12.581Z,100004.16
2022-08-04T23:46:42.919Z,100005.38
2022-08-04T23:49:16.859Z,100001.61
2022-08-04T23:51:44.733Z,100002.24
2022-08-04T23:54:15.088Z,100004.77
2022-08-04T23:56:44.285Z,100004.16
2022-08-04T23:59:17.878Z,99999.80
